Ruleville, Mississippi
Current Conditions -  °F | °C
As of 2:35 PM on Thursday 27 Nov 2014 (Local Time) from KRNV Reporting Station
Clear Clear  
Wind Chill:   Ceiling: Unl
Heat Index:   Visibility: 10mi
Dew Point:   Wind: 8mph
Humidity: 62%   Direction: 350°N
Pressure: 30.48"   Gusts: NA
Location:  33.73°N, 90.55°W
Report Text: KRNV 272035Z AUTO 35007KT 10SM CLR 07/01 A3048 RMK AO2 T00740006
Loading
Personal Weather Stations






























Interactive Weather Map New forecast layout! Learn more

10-Day Weather Forecast

Advertisements
Track Severe Weather on mobile